createdAt,value
2022-08-09T00:01:54.330Z,8.57
2022-08-09T00:12:04.586Z,4.43
2022-08-09T00:22:06.767Z,4.53
2022-08-09T00:32:08.238Z,4.77
2022-08-09T00:44:13.882Z,4.30
2022-08-09T00:52:37.217Z,6.27
2022-08-09T01:02:49.911Z,4.73
2022-08-09T01:13:12.372Z,4.07
2022-08-09T01:24:03.530Z,4.70
2022-08-09T01:34:04.497Z,5.30
2022-08-09T01:44:13.637Z,5.93
2022-08-09T01:54:19.902Z,5.23
2022-08-09T02:04:23.089Z,8.90
2022-08-09T02:14:29.750Z,7.87
2022-08-09T02:24:36.708Z,8.70
2022-08-09T02:34:55.649Z,11.10
2022-08-09T02:45:04.621Z,10.70
2022-08-09T02:55:20.718Z,8.83
2022-08-09T03:05:23.590Z,6.67
2022-08-09T03:15:40.570Z,8.97
2022-08-09T03:25:59.366Z,7.63
2022-08-09T03:36:12.949Z,6.23
2022-08-09T03:46:20.084Z,6.20
2022-08-09T03:56:28.967Z,6.10
2022-08-09T04:06:30.640Z,5.40
2022-08-09T04:16:32.144Z,6.30
2022-08-09T04:26:35.254Z,6.10
2022-08-09T04:36:44.937Z,5.70
2022-08-09T04:46:59.543Z,4.60
2022-08-09T04:57:04.279Z,5.40
2022-08-09T05:07:05.940Z,5.00
2022-08-09T05:18:39.765Z,5.50
2022-08-09T05:27:28.941Z,5.00
2022-08-09T05:37:38.249Z,4.83
2022-08-09T05:47:52.237Z,4.03
2022-08-09T05:57:56.543Z,4.43
2022-08-09T06:08:05.378Z,3.83
2022-08-09T06:18:09.447Z,3.60
2022-08-09T06:28:13.734Z,2.93
2022-08-09T06:38:15.806Z,1.67
2022-08-09T06:48:17.670Z,1.80
2022-08-09T07:00:47.384Z,1.70
2022-08-09T07:08:54.015Z,1.38
2022-08-09T07:18:55.567Z,1.85
2022-08-09T07:29:01.269Z,1.63
2022-08-09T07:39:19.694Z,1.67
2022-08-09T07:49:22.914Z,1.75
2022-08-09T07:59:34.218Z,1.50
2022-08-09T08:09:53.587Z,1.52
2022-08-09T08:20:12.923Z,1.20
2022-08-09T08:30:17.740Z,1.30
2022-08-09T08:40:19.484Z,1.27
2022-08-09T08:50:22.282Z,1.25
2022-08-09T09:00:30.103Z,1.60
2022-08-09T09:10:33.250Z,1.10
2022-08-09T09:20:38.729Z,1.00
2022-08-09T09:30:57.537Z,1.17
2022-08-09T09:40:59.029Z,1.35
2022-08-09T09:51:02.800Z,0.98
2022-08-09T10:01:31.179Z,1.65
2022-08-09T10:11:59.193Z,1.08
2022-08-09T10:22:00.991Z,1.35
2022-08-09T10:42:27.056Z,1.20
2022-08-09T10:52:49.937Z,1.23
2022-08-09T11:03:15.241Z,1.10
2022-08-09T11:13:49.190Z,1.60
2022-08-09T11:23:59.030Z,2.00
2022-08-09T11:34:06.398Z,1.20
2022-08-09T11:44:09.363Z,2.10
2022-08-09T11:54:28.038Z,2.33
2022-08-09T12:04:38.061Z,2.17
2022-08-09T12:15:08.081Z,2.20
2022-08-09T12:25:31.888Z,1.67
2022-08-09T12:35:41.141Z,1.70
2022-08-09T12:46:00.260Z,1.45
2022-08-09T12:56:15.185Z,1.95
2022-08-09T13:06:46.770Z,1.50
2022-08-09T13:16:50.937Z,1.45
2022-08-09T13:26:53.314Z,1.30
2022-08-09T13:37:00.156Z,1.60
2022-08-09T13:47:25.473Z,1.23
2022-08-09T13:57:35.820Z,1.40
2022-08-09T14:07:41.103Z,1.20
2022-08-09T14:18:19.262Z,1.50
2022-08-09T14:28:05.319Z,1.23
2022-08-09T14:38:06.829Z,1.30
2022-08-09T14:48:10.166Z,1.70
2022-08-09T14:58:16.199Z,1.42
2022-08-09T15:08:19.008Z,1.10
2022-08-09T15:18:20.638Z,1.38
2022-08-09T15:28:27.803Z,1.25
2022-08-09T15:38:30.770Z,1.25
2022-08-09T15:48:32.408Z,1.40
2022-08-09T15:58:33.888Z,1.40
2022-08-09T16:08:36.187Z,1.60
2022-08-09T16:18:47.352Z,1.38
2022-08-09T16:28:48.821Z,1.20
2022-08-09T16:38:53.417Z,1.50
2022-08-09T16:49:04.730Z,1.52
2022-08-09T16:59:17.002Z,1.30
2022-08-09T17:09:46.036Z,1.70
2022-08-09T17:20:06.129Z,1.50
2022-08-09T17:30:06.794Z,2.03
2022-08-09T17:40:16.983Z,1.53
2022-08-09T17:50:35.868Z,3.13
2022-08-09T18:00:46.326Z,1.43
2022-08-09T18:11:01.801Z,1.47
2022-08-09T18:21:19.008Z,11.13
2022-08-09T18:31:51.485Z,8.80
2022-08-09T18:41:53.197Z,11.40
2022-08-09T18:51:58.055Z,8.53
2022-08-09T19:01:59.923Z,7.90
2022-08-09T19:12:05.022Z,8.30
2022-08-09T19:22:07.824Z,8.33
2022-08-09T19:32:09.357Z,8.93
2022-08-09T19:42:15.333Z,8.00
2022-08-09T19:52:21.554Z,5.73
2022-08-09T20:04:09.785Z,6.63
2022-08-09T20:12:45.885Z,6.20
2022-08-09T20:22:47.516Z,9.97
2022-08-09T20:32:52.321Z,18.40
2022-08-09T20:43:00.108Z,11.27
2022-08-09T20:53:21.174Z,9.40
2022-08-09T21:03:39.171Z,9.40
2022-08-09T21:13:59.975Z,9.27
2022-08-09T21:24:02.520Z,9.30
2022-08-09T21:34:05.593Z,9.13
2022-08-09T21:44:07.458Z,9.47
2022-08-09T21:54:10.026Z,9.23
2022-08-09T22:04:13.551Z,10.23
2022-08-09T22:14:17.998Z,10.10
2022-08-09T22:24:21.197Z,10.67
2022-08-09T22:34:27.105Z,11.10
2022-08-09T22:44:29.870Z,11.10
2022-08-09T22:54:34.530Z,10.77
2022-08-09T23:04:38.267Z,10.70
2022-08-09T23:14:42.287Z,11.43
2022-08-09T23:24:44.341Z,9.00
2022-08-09T23:34:50.221Z,9.67
2022-08-09T23:44:51.753Z,5.20
2022-08-09T23:54:53.449Z,5.13
